sensor_id;sensor_type;location;lat;lon;timestamp;P1;durP1;ratioP1;P2;durP2;ratioP2
68377;SDS011;55322;48.146;11.516;2023-02-04T00:00:04;4.15;;;1.00;;
68377;SDS011;55322;48.146;11.516;2023-02-04T00:02:31;4.20;;;0.80;;
68377;SDS011;55322;48.146;11.516;2023-02-04T00:04:57;5.00;;;1.20;;
68377;SDS011;55322;48.146;11.516;2023-02-04T00:07:23;4.53;;;1.20;;
68377;SDS011;55322;48.146;11.516;2023-02-04T00:09:48;4.27;;;1.07;;
68377;SDS011;55322;48.146;11.516;2023-02-04T00:12:14;4.53;;;1.10;;
68377;SDS011;55322;48.146;11.516;2023-02-04T00:14:39;4.63;;;1.27;;
68377;SDS011;55322;48.146;11.516;2023-02-04T00:17:04;4.82;;;1.25;;
68377;SDS011;55322;48.146;11.516;2023-02-04T00:19:32;4.87;;;0.90;;
68377;SDS011;55322;48.146;11.516;2023-02-04T00:21:57;4.35;;;1.08;;
68377;SDS011;55322;48.146;11.516;2023-02-04T00:24:23;4.60;;;1.10;;
68377;SDS011;55322;48.146;11.516;2023-02-04T00:26:48;4.90;;;1.30;;
68377;SDS011;55322;48.146;11.516;2023-02-04T00:29:13;4.30;;;1.13;;
68377;SDS011;55322;48.146;11.516;2023-02-04T00:31:39;5.07;;;1.40;;
68377;SDS011;55322;48.146;11.516;2023-02-04T00:34:04;4.90;;;1.48;;
68377;SDS011;55322;48.146;11.516;2023-02-04T00:36:29;4.40;;;1.30;;
68377;SDS011;55322;48.146;11.516;2023-02-04T00:38:55;4.40;;;1.30;;
68377;SDS011;55322;48.146;11.516;2023-02-04T00:41:20;4.30;;;1.20;;
68377;SDS011;55322;48.146;11.516;2023-02-04T00:43:45;4.70;;;1.20;;
68377;SDS011;55322;48.146;11.516;2023-02-04T00:46:11;4.30;;;1.40;;
68377;SDS011;55322;48.146;11.516;2023-02-04T00:48:36;4.40;;;1.00;;
68377;SDS011;55322;48.146;11.516;2023-02-04T00:51:01;4.70;;;1.30;;
68377;SDS011;55322;48.146;11.516;2023-02-04T00:53:26;4.13;;;1.17;;
68377;SDS011;55322;48.146;11.516;2023-02-04T00:55:52;4.27;;;1.20;;
68377;SDS011;55322;48.146;11.516;2023-02-04T00:58:17;4.17;;;1.00;;
68377;SDS011;55322;48.146;11.516;2023-02-04T01:00:42;4.53;;;1.10;;
68377;SDS011;55322;48.146;11.516;2023-02-04T01:03:08;4.97;;;1.27;;
68377;SDS011;55322;48.146;11.516;2023-02-04T01:05:33;4.43;;;1.10;;
68377;SDS011;55322;48.146;11.516;2023-02-04T01:07:59;5.18;;;1.30;;
68377;SDS011;55322;48.146;11.516;2023-02-04T01:10:24;4.27;;;1.00;;
68377;SDS011;55322;48.146;11.516;2023-02-04T01:12:50;4.13;;;0.98;;
68377;SDS011;55322;48.146;11.516;2023-02-04T01:15:16;3.93;;;0.90;;
68377;SDS011;55322;48.146;11.516;2023-02-04T01:17:41;4.30;;;1.00;;
68377;SDS011;55322;48.146;11.516;2023-02-04T01:20:07;4.20;;;0.93;;
68377;SDS011;55322;48.146;11.516;2023-02-04T01:22:33;6.25;;;1.00;;
68377;SDS011;55322;48.146;11.516;2023-02-04T01:24:58;4.33;;;0.70;;
68377;SDS011;55322;48.146;11.516;2023-02-04T01:27:24;5.27;;;1.00;;
68377;SDS011;55322;48.146;11.516;2023-02-04T01:29:49;4.10;;;0.83;;
68377;SDS011;55322;48.146;11.516;2023-02-04T01:32:14;3.88;;;0.80;;
68377;SDS011;55322;48.146;11.516;2023-02-04T01:34:40;4.53;;;0.80;;
68377;SDS011;55322;48.146;11.516;2023-02-04T01:37:05;4.00;;;1.00;;
68377;SDS011;55322;48.146;11.516;2023-02-04T01:39:30;4.17;;;0.90;;
68377;SDS011;55322;48.146;11.516;2023-02-04T01:41:56;3.90;;;0.53;;
68377;SDS011;55322;48.146;11.516;2023-02-04T01:44:22;4.70;;;0.60;;
68377;SDS011;55322;48.146;11.516;2023-02-04T01:46:47;4.10;;;0.80;;
68377;SDS011;55322;48.146;11.516;2023-02-04T01:49:12;3.43;;;0.60;;
68377;SDS011;55322;48.146;11.516;2023-02-04T01:51:38;4.20;;;0.60;;
68377;SDS011;55322;48.146;11.516;2023-02-04T01:54:03;4.82;;;0.80;;
68377;SDS011;55322;48.146;11.516;2023-02-04T01:56:29;4.30;;;1.00;;
68377;SDS011;55322;48.146;11.516;2023-02-04T01:58:55;5.28;;;0.70;;
68377;SDS011;55322;48.146;11.516;2023-02-04T02:01:33;6.50;;;0.70;;
68377;SDS011;55322;48.146;11.516;2023-02-04T02:03:59;5.07;;;0.60;;
68377;SDS011;55322;48.146;11.516;2023-02-04T02:06:25;5.88;;;0.88;;
68377;SDS011;55322;48.146;11.516;2023-02-04T02:08:50;8.03;;;1.07;;
68377;SDS011;55322;48.146;11.516;2023-02-04T02:11:16;5.93;;;0.85;;
68377;SDS011;55322;48.146;11.516;2023-02-04T02:13:41;4.97;;;0.80;;
68377;SDS011;55322;48.146;11.516;2023-02-04T02:16:07;5.57;;;1.10;;
68377;SDS011;55322;48.146;11.516;2023-02-04T02:18:32;5.10;;;1.07;;
68377;SDS011;55322;48.146;11.516;2023-02-04T02:20:58;9.40;;;1.10;;
68377;SDS011;55322;48.146;11.516;2023-02-04T02:26:14;7.60;;;1.17;;
68377;SDS011;55322;48.146;11.516;2023-02-04T02:28:40;9.35;;;1.63;;
68377;SDS011;55322;48.146;11.516;2023-02-04T02:31:07;7.43;;;1.73;;
68377;SDS011;55322;48.146;11.516;2023-02-04T02:33:32;8.35;;;1.55;;
68377;SDS011;55322;48.146;11.516;2023-02-04T02:35:57;7.43;;;1.53;;
68377;SDS011;55322;48.146;11.516;2023-02-04T02:38:23;12.03;;;1.90;;
68377;SDS011;55322;48.146;11.516;2023-02-04T02:40:49;8.18;;;1.65;;
68377;SDS011;55322;48.146;11.516;2023-02-04T02:43:16;7.43;;;1.80;;
68377;SDS011;55322;48.146;11.516;2023-02-04T02:45:45;7.90;;;1.47;;
68377;SDS011;55322;48.146;11.516;2023-02-04T02:48:11;8.73;;;1.80;;
68377;SDS011;55322;48.146;11.516;2023-02-04T02:50:36;10.70;;;1.97;;
68377;SDS011;55322;48.146;11.516;2023-02-04T02:53:02;14.98;;;2.28;;
68377;SDS011;55322;48.146;11.516;2023-02-04T02:55:28;11.63;;;2.10;;
68377;SDS011;55322;48.146;11.516;2023-02-04T02:57:54;10.98;;;2.10;;
68377;SDS011;55322;48.146;11.516;2023-02-04T03:00:21;12.27;;;2.58;;
68377;SDS011;55322;48.146;11.516;2023-02-04T03:02:56;10.45;;;1.80;;
68377;SDS011;55322;48.146;11.516;2023-02-04T03:05:23;11.45;;;2.45;;
68377;SDS011;55322;48.146;11.516;2023-02-04T03:07:50;15.13;;;2.45;;
68377;SDS011;55322;48.146;11.516;2023-02-04T03:10:16;12.43;;;1.97;;
68377;SDS011;55322;48.146;11.516;2023-02-04T03:12:42;11.70;;;2.13;;
68377;SDS011;55322;48.146;11.516;2023-02-04T03:15:08;18.58;;;2.10;;
68377;SDS011;55322;48.146;11.516;2023-02-04T03:17:34;9.48;;;2.15;;
68377;SDS011;55322;48.146;11.516;2023-02-04T03:20:00;14.93;;;2.53;;
68377;SDS011;55322;48.146;11.516;2023-02-04T03:22:25;15.17;;;2.57;;
68377;SDS011;55322;48.146;11.516;2023-02-04T03:24:51;14.48;;;2.50;;
68377;SDS011;55322;48.146;11.516;2023-02-04T03:27:17;13.07;;;2.30;;
68377;SDS011;55322;48.146;11.516;2023-02-04T03:29:43;10.52;;;2.00;;
68377;SDS011;55322;48.146;11.516;2023-02-04T03:32:09;15.40;;;2.28;;
68377;SDS011;55322;48.146;11.516;2023-02-04T03:34:35;14.60;;;2.38;;
68377;SDS011;55322;48.146;11.516;2023-02-04T03:37:00;14.17;;;2.17;;
68377;SDS011;55322;48.146;11.516;2023-02-04T03:39:26;17.77;;;3.27;;
68377;SDS011;55322;48.146;11.516;2023-02-04T03:41:51;13.07;;;2.38;;
68377;SDS011;55322;48.146;11.516;2023-02-04T03:44:16;10.98;;;2.35;;
68377;SDS011;55322;48.146;11.516;2023-02-04T03:46:42;16.53;;;2.90;;
68377;SDS011;55322;48.146;11.516;2023-02-04T03:49:08;12.33;;;2.43;;
68377;SDS011;55322;48.146;11.516;2023-02-04T03:51:33;14.50;;;2.30;;
68377;SDS011;55322;48.146;11.516;2023-02-04T03:53:58;16.60;;;2.70;;
68377;SDS011;55322;48.146;11.516;2023-02-04T03:56:24;11.40;;;2.30;;
68377;SDS011;55322;48.146;11.516;2023-02-04T03:58:49;14.23;;;2.27;;
68377;SDS011;55322;48.146;11.516;2023-02-04T04:01:14;10.40;;;2.20;;
68377;SDS011;55322;48.146;11.516;2023-02-04T04:03:39;16.37;;;2.40;;
68377;SDS011;55322;48.146;11.516;2023-02-04T04:06:05;15.67;;;2.50;;
68377;SDS011;55322;48.146;11.516;2023-02-04T04:08:32;10.93;;;1.92;;
68377;SDS011;55322;48.146;11.516;2023-02-04T04:10:58;15.00;;;2.22;;
68377;SDS011;55322;48.146;11.516;2023-02-04T04:13:24;13.23;;;2.20;;
68377;SDS011;55322;48.146;11.516;2023-02-04T04:15:50;11.30;;;2.27;;
68377;SDS011;55322;48.146;11.516;2023-02-04T04:18:15;13.23;;;2.73;;
68377;SDS011;55322;48.146;11.516;2023-02-04T04:20:40;12.13;;;2.30;;
68377;SDS011;55322;48.146;11.516;2023-02-04T04:23:06;13.87;;;2.53;;
68377;SDS011;55322;48.146;11.516;2023-02-04T04:25:31;10.10;;;2.47;;
68377;SDS011;55322;48.146;11.516;2023-02-04T04:27:56;14.37;;;2.20;;
68377;SDS011;55322;48.146;11.516;2023-02-04T04:30:21;14.70;;;2.30;;
68377;SDS011;55322;48.146;11.516;2023-02-04T04:32:47;9.48;;;1.90;;
68377;SDS011;55322;48.146;11.516;2023-02-04T04:35:12;14.57;;;2.17;;
68377;SDS011;55322;48.146;11.516;2023-02-04T04:37:37;12.13;;;2.10;;
68377;SDS011;55322;48.146;11.516;2023-02-04T04:40:03;10.10;;;1.80;;
68377;SDS011;55322;48.146;11.516;2023-02-04T04:42:28;15.83;;;3.10;;
68377;SDS011;55322;48.146;11.516;2023-02-04T04:44:54;15.93;;;2.50;;
68377;SDS011;55322;48.146;11.516;2023-02-04T04:47:19;13.73;;;2.30;;
68377;SDS011;55322;48.146;11.516;2023-02-04T04:49:44;12.40;;;2.50;;
68377;SDS011;55322;48.146;11.516;2023-02-04T04:52:09;10.70;;;1.93;;
68377;SDS011;55322;48.146;11.516;2023-02-04T04:54:35;16.30;;;2.20;;
68377;SDS011;55322;48.146;11.516;2023-02-04T04:57:00;11.40;;;2.33;;
68377;SDS011;55322;48.146;11.516;2023-02-04T04:59:25;12.57;;;2.20;;
68377;SDS011;55322;48.146;11.516;2023-02-04T05:01:51;9.53;;;1.63;;
68377;SDS011;55322;48.146;11.516;2023-02-04T05:04:16;12.37;;;2.10;;
68377;SDS011;55322;48.146;11.516;2023-02-04T05:06:41;14.15;;;2.25;;
68377;SDS011;55322;48.146;11.516;2023-02-04T05:09:07;15.27;;;2.20;;
68377;SDS011;55322;48.146;11.516;2023-02-04T05:11:33;8.43;;;1.90;;
68377;SDS011;55322;48.146;11.516;2023-02-04T05:13:59;16.13;;;2.08;;
68377;SDS011;55322;48.146;11.516;2023-02-04T05:16:24;11.80;;;1.90;;
68377;SDS011;55322;48.146;11.516;2023-02-04T05:18:49;11.33;;;2.00;;
68377;SDS011;55322;48.146;11.516;2023-02-04T05:21:14;14.97;;;2.27;;
68377;SDS011;55322;48.146;11.516;2023-02-04T05:23:40;14.03;;;2.30;;
68377;SDS011;55322;48.146;11.516;2023-02-04T05:26:05;11.17;;;2.30;;
68377;SDS011;55322;48.146;11.516;2023-02-04T05:28:31;9.90;;;1.87;;
68377;SDS011;55322;48.146;11.516;2023-02-04T05:30:56;12.38;;;2.38;;
68377;SDS011;55322;48.146;11.516;2023-02-04T05:33:21;12.23;;;2.40;;
68377;SDS011;55322;48.146;11.516;2023-02-04T05:35:46;10.20;;;1.90;;
68377;SDS011;55322;48.146;11.516;2023-02-04T05:38:12;15.10;;;2.10;;
68377;SDS011;55322;48.146;11.516;2023-02-04T05:40:37;14.60;;;2.03;;
68377;SDS011;55322;48.146;11.516;2023-02-04T05:43:02;12.93;;;1.90;;
68377;SDS011;55322;48.146;11.516;2023-02-04T05:45:29;8.95;;;1.45;;
68377;SDS011;55322;48.146;11.516;2023-02-04T05:47:54;11.83;;;1.97;;
68377;SDS011;55322;48.146;11.516;2023-02-04T05:50:19;11.30;;;1.90;;
68377;SDS011;55322;48.146;11.516;2023-02-04T05:52:45;12.20;;;1.73;;
68377;SDS011;55322;48.146;11.516;2023-02-04T05:55:10;17.65;;;2.78;;
68377;SDS011;55322;48.146;11.516;2023-02-04T05:57:36;14.27;;;1.87;;
68377;SDS011;55322;48.146;11.516;2023-02-04T06:00:03;13.68;;;2.20;;
68377;SDS011;55322;48.146;11.516;2023-02-04T06:02:29;13.60;;;2.20;;
68377;SDS011;55322;48.146;11.516;2023-02-04T06:04:54;15.13;;;2.20;;
68377;SDS011;55322;48.146;11.516;2023-02-04T06:07:20;14.27;;;2.03;;
68377;SDS011;55322;48.146;11.516;2023-02-04T06:09:45;22.27;;;2.30;;
68377;SDS011;55322;48.146;11.516;2023-02-04T06:12:10;9.93;;;2.10;;
68377;SDS011;55322;48.146;11.516;2023-02-04T06:14:36;11.00;;;2.05;;
68377;SDS011;55322;48.146;11.516;2023-02-04T06:17:01;14.65;;;2.63;;
68377;SDS011;55322;48.146;11.516;2023-02-04T06:19:26;9.13;;;2.20;;
68377;SDS011;55322;48.146;11.516;2023-02-04T06:21:52;12.67;;;2.40;;
68377;SDS011;55322;48.146;11.516;2023-02-04T06:24:17;17.33;;;2.60;;
68377;SDS011;55322;48.146;11.516;2023-02-04T06:26:42;17.20;;;2.50;;
68377;SDS011;55322;48.146;11.516;2023-02-04T06:29:07;10.30;;;2.40;;
68377;SDS011;55322;48.146;11.516;2023-02-04T06:31:33;16.50;;;2.47;;
68377;SDS011;55322;48.146;11.516;2023-02-04T06:34:01;14.32;;;2.97;;
68377;SDS011;55322;48.146;11.516;2023-02-04T06:36:27;17.95;;;2.70;;
68377;SDS011;55322;48.146;11.516;2023-02-04T06:38:53;16.10;;;2.87;;
68377;SDS011;55322;48.146;11.516;2023-02-04T06:41:18;9.68;;;2.30;;
68377;SDS011;55322;48.146;11.516;2023-02-04T06:43:44;10.30;;;2.10;;
68377;SDS011;55322;48.146;11.516;2023-02-04T06:46:09;12.67;;;2.47;;
68377;SDS011;55322;48.146;11.516;2023-02-04T06:48:34;14.53;;;2.47;;
68377;SDS011;55322;48.146;11.516;2023-02-04T06:51:00;16.17;;;2.67;;
68377;SDS011;55322;48.146;11.516;2023-02-04T06:53:25;12.70;;;2.40;;
68377;SDS011;55322;48.146;11.516;2023-02-04T06:55:50;12.70;;;2.83;;
68377;SDS011;55322;48.146;11.516;2023-02-04T06:58:16;11.30;;;2.05;;
68377;SDS011;55322;48.146;11.516;2023-02-04T07:00:42;16.15;;;2.15;;
68377;SDS011;55322;48.146;11.516;2023-02-04T07:03:07;14.00;;;2.20;;
68377;SDS011;55322;48.146;11.516;2023-02-04T07:05:32;12.73;;;2.40;;
68377;SDS011;55322;48.146;11.516;2023-02-04T07:07:58;10.33;;;1.93;;
68377;SDS011;55322;48.146;11.516;2023-02-04T07:10:23;11.60;;;2.20;;
68377;SDS011;55322;48.146;11.516;2023-02-04T07:12:49;11.10;;;2.23;;
68377;SDS011;55322;48.146;11.516;2023-02-04T07:15:14;14.15;;;2.40;;
68377;SDS011;55322;48.146;11.516;2023-02-04T07:17:40;14.63;;;2.38;;
68377;SDS011;55322;48.146;11.516;2023-02-04T07:20:05;14.93;;;2.00;;
68377;SDS011;55322;48.146;11.516;2023-02-04T07:22:31;14.02;;;2.03;;
68377;SDS011;55322;48.146;11.516;2023-02-04T07:24:56;10.33;;;2.03;;
68377;SDS011;55322;48.146;11.516;2023-02-04T07:27:22;11.83;;;1.83;;
68377;SDS011;55322;48.146;11.516;2023-02-04T07:29:47;8.47;;;1.97;;
68377;SDS011;55322;48.146;11.516;2023-02-04T07:32:12;10.90;;;2.00;;
68377;SDS011;55322;48.146;11.516;2023-02-04T07:34:38;10.00;;;1.85;;
68377;SDS011;55322;48.146;11.516;2023-02-04T07:37:03;10.02;;;1.80;;
68377;SDS011;55322;48.146;11.516;2023-02-04T07:39:28;7.60;;;1.83;;
68377;SDS011;55322;48.146;11.516;2023-02-04T07:41:54;9.23;;;1.67;;
68377;SDS011;55322;48.146;11.516;2023-02-04T07:44:19;11.87;;;2.23;;
68377;SDS011;55322;48.146;11.516;2023-02-04T07:46:44;11.80;;;1.93;;
68377;SDS011;55322;48.146;11.516;2023-02-04T07:49:10;9.70;;;1.60;;
68377;SDS011;55322;48.146;11.516;2023-02-04T07:51:35;14.40;;;2.00;;
68377;SDS011;55322;48.146;11.516;2023-02-04T07:54:00;10.50;;;1.70;;
68377;SDS011;55322;48.146;11.516;2023-02-04T07:56:26;11.27;;;2.08;;
68377;SDS011;55322;48.146;11.516;2023-02-04T07:58:51;10.77;;;1.88;;
68377;SDS011;55322;48.146;11.516;2023-02-04T08:01:16;6.57;;;1.53;;
68377;SDS011;55322;48.146;11.516;2023-02-04T08:03:42;11.00;;;2.00;;
68377;SDS011;55322;48.146;11.516;2023-02-04T08:06:07;10.07;;;2.00;;
68377;SDS011;55322;48.146;11.516;2023-02-04T08:08:33;9.85;;;1.92;;
68377;SDS011;55322;48.146;11.516;2023-02-04T08:10:58;9.37;;;1.53;;
68377;SDS011;55322;48.146;11.516;2023-02-04T08:13:23;8.57;;;1.70;;
68377;SDS011;55322;48.146;11.516;2023-02-04T08:15:49;7.47;;;1.60;;
68377;SDS011;55322;48.146;11.516;2023-02-04T08:18:15;10.80;;;1.80;;
68377;SDS011;55322;48.146;11.516;2023-02-04T08:20:40;10.13;;;1.90;;
68377;SDS011;55322;48.146;11.516;2023-02-04T08:23:05;9.47;;;1.63;;
68377;SDS011;55322;48.146;11.516;2023-02-04T08:25:31;11.07;;;1.63;;
68377;SDS011;55322;48.146;11.516;2023-02-04T08:27:56;10.10;;;1.80;;
68377;SDS011;55322;48.146;11.516;2023-02-04T08:30:21;7.27;;;1.53;;
68377;SDS011;55322;48.146;11.516;2023-02-04T08:32:47;9.70;;;1.53;;
68377;SDS011;55322;48.146;11.516;2023-02-04T08:35:12;9.30;;;1.73;;
68377;SDS011;55322;48.146;11.516;2023-02-04T08:37:37;9.57;;;1.60;;
68377;SDS011;55322;48.146;11.516;2023-02-04T08:40:03;12.20;;;1.60;;
68377;SDS011;55322;48.146;11.516;2023-02-04T08:42:28;10.13;;;1.57;;
68377;SDS011;55322;48.146;11.516;2023-02-04T08:44:54;11.15;;;2.28;;
68377;SDS011;55322;48.146;11.516;2023-02-04T08:47:19;10.80;;;1.70;;
68377;SDS011;55322;48.146;11.516;2023-02-04T08:49:44;13.73;;;2.20;;
68377;SDS011;55322;48.146;11.516;2023-02-04T08:52:10;8.97;;;1.60;;
68377;SDS011;55322;48.146;11.516;2023-02-04T08:54:35;13.40;;;1.90;;
68377;SDS011;55322;48.146;11.516;2023-02-04T08:57:00;11.20;;;2.00;;
68377;SDS011;55322;48.146;11.516;2023-02-04T08:59:27;10.93;;;1.60;;
68377;SDS011;55322;48.146;11.516;2023-02-04T09:01:52;10.77;;;2.03;;
68377;SDS011;55322;48.146;11.516;2023-02-04T09:04:18;8.30;;;1.70;;
68377;SDS011;55322;48.146;11.516;2023-02-04T09:06:45;11.23;;;1.52;;
68377;SDS011;55322;48.146;11.516;2023-02-04T09:09:11;12.82;;;2.25;;
68377;SDS011;55322;48.146;11.516;2023-02-04T09:11:37;10.87;;;1.73;;
68377;SDS011;55322;48.146;11.516;2023-02-04T09:14:02;10.23;;;1.42;;
68377;SDS011;55322;48.146;11.516;2023-02-04T09:16:28;10.37;;;1.57;;
68377;SDS011;55322;48.146;11.516;2023-02-04T09:18:53;10.43;;;1.40;;
68377;SDS011;55322;48.146;11.516;2023-02-04T09:21:18;8.30;;;1.47;;
68377;SDS011;55322;48.146;11.516;2023-02-04T09:23:44;11.63;;;1.55;;
68377;SDS011;55322;48.146;11.516;2023-02-04T09:26:10;11.17;;;1.57;;
68377;SDS011;55322;48.146;11.516;2023-02-04T09:28:36;13.63;;;1.67;;
68377;SDS011;55322;48.146;11.516;2023-02-04T09:31:02;13.20;;;1.57;;
68377;SDS011;55322;48.146;11.516;2023-02-04T09:33:27;10.32;;;1.33;;
68377;SDS011;55322;48.146;11.516;2023-02-04T09:35:52;11.57;;;1.50;;
68377;SDS011;55322;48.146;11.516;2023-02-04T09:38:18;14.00;;;1.90;;
68377;SDS011;55322;48.146;11.516;2023-02-04T09:40:45;10.23;;;1.87;;
68377;SDS011;55322;48.146;11.516;2023-02-04T09:43:15;11.93;;;1.50;;
68377;SDS011;55322;48.146;11.516;2023-02-04T09:45:46;9.75;;;1.50;;
68377;SDS011;55322;48.146;11.516;2023-02-04T09:48:13;14.32;;;1.85;;
68377;SDS011;55322;48.146;11.516;2023-02-04T09:50:38;8.37;;;1.43;;
68377;SDS011;55322;48.146;11.516;2023-02-04T09:53:04;9.70;;;1.60;;
68377;SDS011;55322;48.146;11.516;2023-02-04T09:55:35;11.45;;;1.60;;
68377;SDS011;55322;48.146;11.516;2023-02-04T09:58:25;12.90;;;1.40;;
68377;SDS011;55322;48.146;11.516;2023-02-04T10:00:57;10.07;;;1.40;;
68377;SDS011;55322;48.146;11.516;2023-02-04T10:03:25;11.10;;;1.57;;
68377;SDS011;55322;48.146;11.516;2023-02-04T10:05:50;12.00;;;1.70;;
68377;SDS011;55322;48.146;11.516;2023-02-04T10:08:17;7.70;;;1.43;;
68377;SDS011;55322;48.146;11.516;2023-02-04T10:10:44;10.52;;;1.50;;
68377;SDS011;55322;48.146;11.516;2023-02-04T10:13:16;11.35;;;1.80;;
68377;SDS011;55322;48.146;11.516;2023-02-04T10:15:44;11.73;;;1.60;;
68377;SDS011;55322;48.146;11.516;2023-02-04T10:18:12;10.30;;;1.60;;
68377;SDS011;55322;48.146;11.516;2023-02-04T10:20:44;9.63;;;1.65;;
68377;SDS011;55322;48.146;11.516;2023-02-04T10:23:09;8.37;;;1.30;;
68377;SDS011;55322;48.146;11.516;2023-02-04T10:25:35;9.15;;;1.30;;
68377;SDS011;55322;48.146;11.516;2023-02-04T10:28:00;9.50;;;1.50;;
68377;SDS011;55322;48.146;11.516;2023-02-04T10:30:27;10.73;;;2.00;;
68377;SDS011;55322;48.146;11.516;2023-02-04T10:32:59;11.80;;;1.75;;
68377;SDS011;55322;48.146;11.516;2023-02-04T10:35:42;9.45;;;1.75;;
68377;SDS011;55322;48.146;11.516;2023-02-04T10:38:09;11.40;;;1.50;;
68377;SDS011;55322;48.146;11.516;2023-02-04T10:40:35;9.93;;;1.53;;
68377;SDS011;55322;48.146;11.516;2023-02-04T10:43:13;6.20;;;0.90;;
68377;SDS011;55322;48.146;11.516;2023-02-04T10:45:43;6.50;;;1.10;;
68377;SDS011;55322;48.146;11.516;2023-02-04T10:48:16;7.88;;;0.88;;
68377;SDS011;55322;48.146;11.516;2023-02-04T10:50:43;8.90;;;1.42;;
68377;SDS011;55322;48.146;11.516;2023-02-04T10:53:10;6.53;;;0.90;;
68377;SDS011;55322;48.146;11.516;2023-02-04T10:55:57;6.15;;;1.10;;
68377;SDS011;55322;48.146;11.516;2023-02-04T10:58:26;11.23;;;1.10;;
68377;SDS011;55322;48.146;11.516;2023-02-04T11:00:52;9.30;;;1.30;;
68377;SDS011;55322;48.146;11.516;2023-02-04T11:03:22;6.68;;;0.95;;
68377;SDS011;55322;48.146;11.516;2023-02-04T11:05:49;6.63;;;1.17;;
68377;SDS011;55322;48.146;11.516;2023-02-04T11:08:19;9.23;;;1.33;;
68377;SDS011;55322;48.146;11.516;2023-02-04T11:10:55;6.70;;;1.00;;
68377;SDS011;55322;48.146;11.516;2023-02-04T11:13:26;7.30;;;1.20;;
68377;SDS011;55322;48.146;11.516;2023-02-04T11:18:46;4.07;;;0.40;;
68377;SDS011;55322;48.146;11.516;2023-02-04T11:26:43;7.65;;;0.70;;
68377;SDS011;55322;48.146;11.516;2023-02-04T11:39:27;3.77;;;0.80;;
68377;SDS011;55322;48.146;11.516;2023-02-04T11:41:59;5.45;;;0.68;;
68377;SDS011;55322;48.146;11.516;2023-02-04T11:44:25;6.05;;;0.68;;
68377;SDS011;55322;48.146;11.516;2023-02-04T11:46:51;5.47;;;0.65;;
68377;SDS011;55322;48.146;11.516;2023-02-04T11:49:21;5.37;;;0.70;;
68377;SDS011;55322;48.146;11.516;2023-02-04T11:51:47;5.43;;;0.70;;
68377;SDS011;55322;48.146;11.516;2023-02-04T11:54:14;5.40;;;0.60;;
68377;SDS011;55322;48.146;11.516;2023-02-04T11:56:43;2.67;;;0.40;;
68377;SDS011;55322;48.146;11.516;2023-02-04T11:59:12;4.23;;;0.60;;
68377;SDS011;55322;48.146;11.516;2023-02-04T12:01:38;4.72;;;0.50;;
68377;SDS011;55322;48.146;11.516;2023-02-04T12:04:05;4.25;;;0.73;;
68377;SDS011;55322;48.146;11.516;2023-02-04T12:06:55;4.07;;;0.70;;
68377;SDS011;55322;48.146;11.516;2023-02-04T12:09:32;3.40;;;0.60;;
68377;SDS011;55322;48.146;11.516;2023-02-04T12:11:59;5.05;;;0.73;;
68377;SDS011;55322;48.146;11.516;2023-02-04T12:14:33;5.33;;;0.60;;
68377;SDS011;55322;48.146;11.516;2023-02-04T12:17:13;4.97;;;0.75;;
68377;SDS011;55322;48.146;11.516;2023-02-04T12:19:40;4.20;;;0.70;;
68377;SDS011;55322;48.146;11.516;2023-02-04T12:22:06;5.63;;;1.00;;
68377;SDS011;55322;48.146;11.516;2023-02-04T12:24:31;4.50;;;0.70;;
68377;SDS011;55322;48.146;11.516;2023-02-04T12:26:56;5.85;;;0.70;;
68377;SDS011;55322;48.146;11.516;2023-02-04T12:29:22;3.70;;;0.67;;
68377;SDS011;55322;48.146;11.516;2023-02-04T12:31:47;6.70;;;1.10;;
68377;SDS011;55322;48.146;11.516;2023-02-04T12:34:12;5.50;;;0.80;;
68377;SDS011;55322;48.146;11.516;2023-02-04T12:36:38;3.63;;;0.70;;
68377;SDS011;55322;48.146;11.516;2023-02-04T12:39:03;3.67;;;0.67;;
68377;SDS011;55322;48.146;11.516;2023-02-04T12:41:28;4.13;;;0.70;;
68377;SDS011;55322;48.146;11.516;2023-02-04T12:43:54;4.90;;;0.80;;
68377;SDS011;55322;48.146;11.516;2023-02-04T12:46:19;4.35;;;0.73;;
68377;SDS011;55322;48.146;11.516;2023-02-04T12:48:45;3.83;;;0.50;;
68377;SDS011;55322;48.146;11.516;2023-02-04T12:51:10;5.23;;;0.80;;
68377;SDS011;55322;48.146;11.516;2023-02-04T12:53:36;4.78;;;0.80;;
68377;SDS011;55322;48.146;11.516;2023-02-04T12:56:01;3.60;;;0.70;;
68377;SDS011;55322;48.146;11.516;2023-02-04T12:58:27;5.83;;;1.07;;
68377;SDS011;55322;48.146;11.516;2023-02-04T13:00:52;5.57;;;0.90;;
68377;SDS011;55322;48.146;11.516;2023-02-04T13:03:18;3.77;;;0.80;;
68377;SDS011;55322;48.146;11.516;2023-02-04T13:05:43;3.22;;;0.80;;
68377;SDS011;55322;48.146;11.516;2023-02-04T13:08:08;4.37;;;0.70;;
68377;SDS011;55322;48.146;11.516;2023-02-04T13:10:34;5.30;;;0.80;;
68377;SDS011;55322;48.146;11.516;2023-02-04T13:12:59;3.73;;;0.67;;
68377;SDS011;55322;48.146;11.516;2023-02-04T13:15:25;6.70;;;1.10;;
68377;SDS011;55322;48.146;11.516;2023-02-04T13:17:50;5.63;;;0.70;;
68377;SDS011;55322;48.146;11.516;2023-02-04T13:20:16;6.27;;;0.70;;
68377;SDS011;55322;48.146;11.516;2023-02-04T13:22:42;5.82;;;1.63;;
68377;SDS011;55322;48.146;11.516;2023-02-04T13:25:07;5.13;;;0.80;;
68377;SDS011;55322;48.146;11.516;2023-02-04T13:27:34;5.28;;;0.98;;
68377;SDS011;55322;48.146;11.516;2023-02-04T13:30:00;5.22;;;0.88;;
68377;SDS011;55322;48.146;11.516;2023-02-04T13:32:25;8.17;;;0.97;;
68377;SDS011;55322;48.146;11.516;2023-02-04T13:34:50;6.17;;;0.83;;
68377;SDS011;55322;48.146;11.516;2023-02-04T13:37:16;4.40;;;0.90;;
68377;SDS011;55322;48.146;11.516;2023-02-04T13:39:41;5.60;;;0.80;;
68377;SDS011;55322;48.146;11.516;2023-02-04T13:42:06;5.73;;;0.77;;
68377;SDS011;55322;48.146;11.516;2023-02-04T13:44:32;5.37;;;0.90;;
68377;SDS011;55322;48.146;11.516;2023-02-04T13:46:57;6.43;;;0.70;;
68377;SDS011;55322;48.146;11.516;2023-02-04T13:49:22;4.00;;;0.70;;
68377;SDS011;55322;48.146;11.516;2023-02-04T13:51:48;3.83;;;0.70;;
68377;SDS011;55322;48.146;11.516;2023-02-04T13:54:13;4.83;;;0.87;;
68377;SDS011;55322;48.146;11.516;2023-02-04T13:56:38;3.33;;;0.70;;
68377;SDS011;55322;48.146;11.516;2023-02-04T13:59:05;6.10;;;1.00;;
68377;SDS011;55322;48.146;11.516;2023-02-04T14:01:30;4.38;;;0.80;;
68377;SDS011;55322;48.146;11.516;2023-02-04T14:03:56;4.23;;;0.70;;
68377;SDS011;55322;48.146;11.516;2023-02-04T14:06:21;4.17;;;0.80;;
68377;SDS011;55322;48.146;11.516;2023-02-04T14:08:47;4.13;;;0.70;;
68377;SDS011;55322;48.146;11.516;2023-02-04T14:11:12;5.00;;;1.07;;
68377;SDS011;55322;48.146;11.516;2023-02-04T14:13:38;4.20;;;0.80;;
68377;SDS011;55322;48.146;11.516;2023-02-04T14:16:03;4.03;;;0.70;;
68377;SDS011;55322;48.146;11.516;2023-02-04T14:18:30;3.83;;;0.85;;
68377;SDS011;55322;48.146;11.516;2023-02-04T14:20:55;3.47;;;0.63;;
68377;SDS011;55322;48.146;11.516;2023-02-04T14:23:20;4.07;;;0.80;;
68377;SDS011;55322;48.146;11.516;2023-02-04T14:25:46;4.43;;;0.80;;
68377;SDS011;55322;48.146;11.516;2023-02-04T14:28:11;3.87;;;0.80;;
68377;SDS011;55322;48.146;11.516;2023-02-04T14:30:37;4.17;;;0.77;;
68377;SDS011;55322;48.146;11.516;2023-02-04T14:33:02;4.43;;;0.70;;
68377;SDS011;55322;48.146;11.516;2023-02-04T14:35:27;3.58;;;0.65;;
68377;SDS011;55322;48.146;11.516;2023-02-04T14:37:53;3.37;;;0.60;;
68377;SDS011;55322;48.146;11.516;2023-02-04T14:40:18;3.50;;;0.53;;
68377;SDS011;55322;48.146;11.516;2023-02-04T14:42:45;3.65;;;0.60;;